createdAt,value
2022-11-21T00:01:44.451Z,4.35
2022-11-21T00:04:47.020Z,4.80
2022-11-21T00:07:49.949Z,4.47
2022-11-21T00:10:52.433Z,4.88
2022-11-21T00:13:56.132Z,4.45
2022-11-21T00:16:58.675Z,4.90
2022-11-21T00:20:01.621Z,4.45
2022-11-21T00:23:05.999Z,4.63
2022-11-21T00:26:10.137Z,4.50
2022-11-21T00:29:12.667Z,4.80
2022-11-21T00:32:15.155Z,4.50
2022-11-21T00:35:17.682Z,4.40
2022-11-21T00:38:20.279Z,4.80
2022-11-21T00:41:22.714Z,4.57
2022-11-21T00:44:25.313Z,4.45
2022-11-21T00:47:28.144Z,4.50
2022-11-21T00:50:30.575Z,4.35
2022-11-21T00:53:33.374Z,4.70
2022-11-21T00:56:35.774Z,4.47
2022-11-21T00:59:38.252Z,4.47
2022-11-21T01:02:40.723Z,4.57
2022-11-21T01:05:43.749Z,4.68
2022-11-21T01:08:46.438Z,4.37
2022-11-21T01:11:49.026Z,4.60
2022-11-21T01:14:51.618Z,4.85
2022-11-21T01:17:54.042Z,5.10
2022-11-21T01:21:01.393Z,4.57
2022-11-21T01:24:05.254Z,4.63
2022-11-21T01:27:07.791Z,4.40
2022-11-21T01:30:11.965Z,4.68
2022-11-21T01:33:14.482Z,4.40
2022-11-21T01:36:19.721Z,5.05
2022-11-21T01:39:22.320Z,4.63
2022-11-21T01:42:24.843Z,4.53
2022-11-21T01:45:56.911Z,4.50
2022-11-21T01:49:08.120Z,4.20
2022-11-21T01:52:20.936Z,4.80
2022-11-21T01:55:23.596Z,4.33
2022-11-21T01:58:26.520Z,4.22
2022-11-21T02:01:30.034Z,4.50
2022-11-21T02:04:33.933Z,4.20
2022-11-21T02:07:41.926Z,4.28
2022-11-21T02:10:58.093Z,4.30
2022-11-21T02:14:02.034Z,4.10
2022-11-21T02:17:07.634Z,4.30
2022-11-21T02:20:12.509Z,3.83
2022-11-21T02:23:32.190Z,4.30
2022-11-21T02:26:35.740Z,3.93
2022-11-21T02:29:40.518Z,4.25
2022-11-21T02:32:48.330Z,4.38
2022-11-21T02:35:58.721Z,4.20
2022-11-21T02:39:01.605Z,4.65
2022-11-21T02:42:21.518Z,4.00
2022-11-21T02:45:30.390Z,4.35
2022-11-21T02:48:32.932Z,4.22
2022-11-21T02:51:35.614Z,4.30
2022-11-21T02:54:38.127Z,4.18
2022-11-21T02:57:40.720Z,4.40
2022-11-21T03:00:44.367Z,4.30
2022-11-21T03:03:46.917Z,4.40
2022-11-21T03:06:49.494Z,4.70
2022-11-21T03:09:52.158Z,4.03
2022-11-21T03:13:01.252Z,4.03
2022-11-21T03:16:04.193Z,4.15
2022-11-21T03:19:09.200Z,4.45
2022-11-21T03:22:13.352Z,4.22
2022-11-21T03:25:15.987Z,4.25
2022-11-21T03:28:18.488Z,3.63
2022-11-21T03:31:21.090Z,4.40
2022-11-21T03:34:25.316Z,3.95
2022-11-21T03:37:28.084Z,4.15
2022-11-21T03:40:30.576Z,4.30
2022-11-21T03:43:33.729Z,3.93
2022-11-21T03:46:42.104Z,4.50
2022-11-21T03:49:44.626Z,4.10
2022-11-21T03:52:47.158Z,4.15
2022-11-21T03:55:49.669Z,4.43
2022-11-21T03:58:52.859Z,4.80
2022-11-21T04:01:55.414Z,4.20
2022-11-21T04:04:57.953Z,4.55
2022-11-21T04:08:00.656Z,4.43
2022-11-21T04:11:03.232Z,4.68
2022-11-21T04:14:05.735Z,4.43
2022-11-21T04:17:08.157Z,4.57
2022-11-21T04:20:11.301Z,4.50
2022-11-21T04:23:14.241Z,4.45
2022-11-21T04:26:16.843Z,4.32
2022-11-21T04:29:19.361Z,4.13
2022-11-21T04:32:21.866Z,4.50
2022-11-21T04:35:25.135Z,4.97
2022-11-21T04:38:27.704Z,4.53
2022-11-21T04:41:30.233Z,4.40
2022-11-21T04:44:32.722Z,4.67
2022-11-21T04:47:43.466Z,4.25
2022-11-21T04:50:46.642Z,4.13
2022-11-21T04:53:49.071Z,4.57
2022-11-21T04:56:51.553Z,4.90
2022-11-21T04:59:54.411Z,4.10
2022-11-21T05:03:05.344Z,4.57
2022-11-21T05:06:08.306Z,4.57
2022-11-21T05:09:11.291Z,4.38
2022-11-21T05:12:32.032Z,4.70
2022-11-21T05:15:34.607Z,4.20
2022-11-21T05:18:37.517Z,4.70
2022-11-21T05:21:40.057Z,4.38
2022-11-21T05:24:42.574Z,4.90
2022-11-21T05:27:45.103Z,4.50
2022-11-21T05:30:47.689Z,4.47
2022-11-21T05:33:50.453Z,4.20
2022-11-21T05:36:57.327Z,4.43
2022-11-21T05:39:59.835Z,4.32
2022-11-21T05:43:20.844Z,5.07
2022-11-21T05:46:25.652Z,4.23
2022-11-21T05:49:28.217Z,4.32
2022-11-21T05:52:30.765Z,4.60
2022-11-21T05:55:36.028Z,5.28
2022-11-21T05:58:40.119Z,5.22
2022-11-21T06:02:01.645Z,4.23
2022-11-21T06:05:04.436Z,4.80
2022-11-21T06:08:06.973Z,4.72
2022-11-21T06:11:11.717Z,4.13
2022-11-21T06:14:14.304Z,4.65
2022-11-21T06:17:16.790Z,4.27
2022-11-21T06:20:19.471Z,4.70
2022-11-21T06:23:22.061Z,4.70
2022-11-21T06:26:27.834Z,4.43
2022-11-21T06:29:30.302Z,4.60
2022-11-21T06:32:37.568Z,4.57
2022-11-21T06:35:40.179Z,4.80
2022-11-21T06:38:45.256Z,4.40
2022-11-21T06:41:51.392Z,4.40
2022-11-21T06:44:54.183Z,4.65
2022-11-21T06:47:56.763Z,4.53
2022-11-21T06:51:07.337Z,4.35
2022-11-21T06:54:12.612Z,4.63
2022-11-21T06:57:23.333Z,4.90
2022-11-21T07:00:30.523Z,4.55
2022-11-21T07:03:36.591Z,4.57
2022-11-21T07:06:42.835Z,5.05
2022-11-21T07:09:47.760Z,4.88
2022-11-21T07:13:10.120Z,4.65
2022-11-21T07:16:16.135Z,5.00
2022-11-21T07:19:18.877Z,4.83
2022-11-21T07:22:22.578Z,4.78
2022-11-21T07:25:25.304Z,5.30
2022-11-21T07:28:30.197Z,4.47
2022-11-21T07:31:33.261Z,4.60
2022-11-21T07:34:37.388Z,4.77
2022-11-21T07:37:40.670Z,4.40
2022-11-21T07:40:43.939Z,4.90
2022-11-21T07:43:47.574Z,4.55
2022-11-21T07:46:54.991Z,4.90
2022-11-21T07:49:57.796Z,4.60
2022-11-21T07:53:06.252Z,5.45
2022-11-21T07:56:12.192Z,5.32
2022-11-21T07:59:14.857Z,5.30
2022-11-21T08:02:26.796Z,5.20
2022-11-21T08:05:29.389Z,4.90
2022-11-21T08:08:32.443Z,4.90
2022-11-21T08:11:37.300Z,5.10
2022-11-21T08:14:40.773Z,5.30
2022-11-21T08:17:44.426Z,4.90
2022-11-21T08:20:47.217Z,4.60
2022-11-21T08:23:50.178Z,5.18
2022-11-21T08:26:53.033Z,5.28
2022-11-21T08:29:57.670Z,5.00
2022-11-21T08:33:02.384Z,5.03
2022-11-21T08:36:07.507Z,5.23
2022-11-21T08:39:10.404Z,5.00
2022-11-21T08:42:12.952Z,5.38
2022-11-21T08:45:15.635Z,5.00
2022-11-21T08:48:18.208Z,5.35
2022-11-21T08:51:21.605Z,5.47
2022-11-21T08:54:25.420Z,5.18
2022-11-21T08:57:29.239Z,5.80
2022-11-21T09:00:31.874Z,5.28
2022-11-21T09:03:35.374Z,5.90
2022-11-21T09:06:38.607Z,5.27
2022-11-21T09:09:41.297Z,5.65
2022-11-21T09:12:43.939Z,5.70
2022-11-21T09:16:05.240Z,5.85
2022-11-21T09:19:24.091Z,6.00
2022-11-21T09:22:38.479Z,5.63
2022-11-21T09:25:41.800Z,5.78
2022-11-21T09:28:44.535Z,5.60
2022-11-21T09:31:47.748Z,5.65
2022-11-21T09:34:51.056Z,5.78
2022-11-21T09:37:53.617Z,5.60
2022-11-21T09:41:30.266Z,5.90
2022-11-21T09:45:11.529Z,5.43
2022-11-21T09:48:37.413Z,5.53
2022-11-21T09:51:42.851Z,5.43
2022-11-21T09:54:52.654Z,5.43
2022-11-21T09:58:26.600Z,5.72
2022-11-21T10:01:30.076Z,5.75
2022-11-21T10:04:32.859Z,5.70
2022-11-21T10:07:37.364Z,6.10
2022-11-21T10:11:16.295Z,6.13
2022-11-21T10:14:32.917Z,5.22
2022-11-21T10:17:42.029Z,5.47
2022-11-21T10:21:00.260Z,5.72
2022-11-21T10:24:36.592Z,6.18
2022-11-21T10:27:50.692Z,5.70
2022-11-21T10:30:53.455Z,6.10
2022-11-21T10:33:57.229Z,5.70
2022-11-21T10:37:11.989Z,5.32
2022-11-21T10:40:38.408Z,6.30
2022-11-21T10:44:12.368Z,6.07
2022-11-21T10:47:28.137Z,5.93
2022-11-21T10:50:44.340Z,6.18
2022-11-21T10:54:07.996Z,5.70
2022-11-21T10:57:16.980Z,6.18
2022-11-21T11:00:26.599Z,6.17
2022-11-21T11:03:33.078Z,6.32
2022-11-21T11:06:40.603Z,6.13
2022-11-21T11:09:47.034Z,6.55
2022-11-21T11:13:30.677Z,6.32
2022-11-21T11:16:41.368Z,5.73
2022-11-21T11:20:06.727Z,5.63
2022-11-21T11:23:25.296Z,6.03
2022-11-21T11:26:30.175Z,6.43
2022-11-21T11:29:35.646Z,6.30
2022-11-21T11:32:44.562Z,5.83
2022-11-21T11:35:47.261Z,5.63
2022-11-21T11:38:58.851Z,5.53
2022-11-21T11:42:51.162Z,6.03
2022-11-21T11:46:41.190Z,6.00
2022-11-21T11:50:11.786Z,6.10
2022-11-21T11:53:23.233Z,5.95
2022-11-21T11:56:33.408Z,5.97
2022-11-21T11:59:44.037Z,6.10
2022-11-21T12:03:04.144Z,6.22
2022-11-21T12:06:21.947Z,5.57
2022-11-21T12:09:51.667Z,5.82
2022-11-21T12:16:41.512Z,5.90
2022-11-21T12:19:47.173Z,5.78
2022-11-21T12:22:52.244Z,5.90
2022-11-21T12:26:17.042Z,6.18
2022-11-21T12:29:43.003Z,5.60
2022-11-21T12:33:05.143Z,5.50
2022-11-21T12:36:28.522Z,5.93
2022-11-21T12:40:07.206Z,5.43
2022-11-21T12:43:17.389Z,6.22
2022-11-21T12:46:28.125Z,6.18
2022-11-21T12:50:34.974Z,6.55
2022-11-21T12:58:54.463Z,5.67
2022-11-21T13:07:40.849Z,5.47
2022-11-21T13:11:35.890Z,5.40
2022-11-21T13:15:18.654Z,6.00
2022-11-21T13:18:33.779Z,6.30
2022-11-21T13:21:50.503Z,6.07
2022-11-21T13:29:14.079Z,6.57
2022-11-21T13:32:39.062Z,6.90
2022-11-21T13:35:50.731Z,6.77
2022-11-21T13:38:56.519Z,6.97
2022-11-21T13:42:23.127Z,6.95
2022-11-21T13:45:48.404Z,5.90
2022-11-21T13:49:10.639Z,6.82
2022-11-21T13:52:19.251Z,6.43
2022-11-21T13:55:49.962Z,6.28
2022-11-21T13:59:20.787Z,6.15
2022-11-21T14:03:00.946Z,6.90
2022-11-21T14:06:12.493Z,6.88
2022-11-21T14:09:18.236Z,7.03
2022-11-21T14:12:32.712Z,6.57
2022-11-21T14:15:54.470Z,6.53
2022-11-21T14:18:58.236Z,6.80
2022-11-21T14:22:01.226Z,7.30
2022-11-21T14:25:08.991Z,5.70
2022-11-21T14:28:37.786Z,6.80
2022-11-21T14:31:48.746Z,6.60
2022-11-21T14:35:24.646Z,6.90
2022-11-21T14:38:34.442Z,7.07
2022-11-21T14:41:39.201Z,6.10
2022-11-21T14:44:43.067Z,6.60
2022-11-21T14:48:12.541Z,7.40
2022-11-21T14:51:17.773Z,6.72
2022-11-21T14:54:23.059Z,6.00
2022-11-21T14:57:32.334Z,6.17
2022-11-21T15:03:58.724Z,7.30
2022-11-21T15:07:01.930Z,6.30
2022-11-21T15:10:27.232Z,6.93
2022-11-21T15:13:51.528Z,6.80
2022-11-21T15:16:58.801Z,6.93
2022-11-21T15:20:13.580Z,6.68
2022-11-21T15:23:44.307Z,6.78
2022-11-21T15:26:47.334Z,6.80
2022-11-21T15:30:07.111Z,6.37
2022-11-21T15:33:17.785Z,6.10
2022-11-21T15:36:20.487Z,6.43
2022-11-21T15:39:23.541Z,6.53
2022-11-21T15:42:32.130Z,6.78
2022-11-21T15:45:35.688Z,7.30
2022-11-21T15:48:38.554Z,6.75
2022-11-21T15:55:13.793Z,7.07
2022-11-21T15:58:17.582Z,6.63
2022-11-21T16:01:25.755Z,6.43
2022-11-21T16:04:28.616Z,6.32
2022-11-21T16:07:31.163Z,6.43
2022-11-21T16:10:33.950Z,5.90
2022-11-21T16:13:36.427Z,8.85
2022-11-21T16:16:43.151Z,9.70
2022-11-21T16:19:46.200Z,9.57
2022-11-21T16:22:49.972Z,10.07
2022-11-21T16:25:56.322Z,9.52
2022-11-21T16:29:00.058Z,9.15
2022-11-21T16:32:03.132Z,8.57
2022-11-21T16:35:06.055Z,8.00
2022-11-21T16:38:12.486Z,7.80
2022-11-21T16:41:22.030Z,7.88
2022-11-21T16:44:24.627Z,7.50
2022-11-21T16:47:27.066Z,7.60
2022-11-21T16:50:29.574Z,7.30
2022-11-21T16:53:32.314Z,7.32
2022-11-21T16:56:34.788Z,7.72
2022-11-21T16:59:37.782Z,7.45
2022-11-21T17:02:40.471Z,7.17
2022-11-21T17:05:43.333Z,7.47
2022-11-21T17:08:47.133Z,7.45
2022-11-21T17:11:50.121Z,7.90
2022-11-21T17:14:53.165Z,7.22
2022-11-21T17:17:57.491Z,7.00
2022-11-21T17:21:04.080Z,6.90
2022-11-21T17:24:06.912Z,7.43
2022-11-21T17:27:09.990Z,7.22
2022-11-21T17:30:13.616Z,7.97
2022-11-21T17:33:16.638Z,7.20
2022-11-21T17:36:21.889Z,6.97
2022-11-21T17:39:29.638Z,7.60
2022-11-21T17:42:33.147Z,7.05
2022-11-21T17:45:35.999Z,7.70
2022-11-21T17:48:39.327Z,6.90
2022-11-21T17:51:42.573Z,7.15
2022-11-21T17:54:47.096Z,6.93
2022-11-21T17:57:50.112Z,7.13
2022-11-21T18:00:57.161Z,7.47
2022-11-21T18:04:02.381Z,7.20
2022-11-21T18:07:09.082Z,7.10
2022-11-21T18:10:40.673Z,7.60
2022-11-21T18:13:37.241Z,7.18
2022-11-21T18:16:43.700Z,7.38
2022-11-21T18:19:50.616Z,7.20
2022-11-21T18:22:53.477Z,7.57
2022-11-21T18:25:56.209Z,8.07
2022-11-21T18:29:28.689Z,7.78
2022-11-21T18:32:24.715Z,7.32
2022-11-21T18:35:27.557Z,6.87
2022-11-21T18:38:59.924Z,7.90
2022-11-21T18:41:59.218Z,8.07
2022-11-21T18:45:03.352Z,7.72
2022-11-21T18:48:06.360Z,7.40
2022-11-21T18:51:18.682Z,7.70
2022-11-21T18:54:21.737Z,7.35
2022-11-21T18:57:24.291Z,7.40
2022-11-21T19:00:29.902Z,7.57
2022-11-21T19:03:33.340Z,7.50
2022-11-21T19:06:36.400Z,7.30
2022-11-21T19:09:39.536Z,7.65
2022-11-21T19:12:46.206Z,8.15
2022-11-21T19:15:49.148Z,7.53
2022-11-21T19:19:26.372Z,8.10
2022-11-21T19:22:17.324Z,7.37
2022-11-21T19:25:20.795Z,7.90
2022-11-21T19:28:24.201Z,7.40
2022-11-21T19:31:27.985Z,7.53
2022-11-21T19:34:30.977Z,7.50
2022-11-21T19:37:33.483Z,7.87
2022-11-21T19:40:56.565Z,7.65
2022-11-21T19:44:03.903Z,7.75
2022-11-21T19:47:07.881Z,7.55
2022-11-21T19:50:10.948Z,7.55
2022-11-21T19:53:14.067Z,7.30
2022-11-21T19:56:19.814Z,7.75
2022-11-21T19:59:25.992Z,7.78
2022-11-21T20:02:29.008Z,7.53
2022-11-21T20:05:32.039Z,8.13
2022-11-21T20:08:35.639Z,7.50
2022-11-21T20:11:43.266Z,7.45
2022-11-21T20:14:46.688Z,7.80
2022-11-21T20:17:50.758Z,8.00
2022-11-21T20:20:54.054Z,8.07
2022-11-21T20:23:59.954Z,7.60
2022-11-21T20:27:02.940Z,8.00
2022-11-21T20:30:06.569Z,7.80
2022-11-21T20:33:11.457Z,7.05
2022-11-21T20:36:19.135Z,7.97
2022-11-21T20:39:22.400Z,7.77
2022-11-21T20:42:26.086Z,7.20
2022-11-21T20:48:51.868Z,7.70
2022-11-21T20:55:18.164Z,7.33
2022-11-21T20:58:21.237Z,7.55
2022-11-21T21:01:24.694Z,8.25
2022-11-21T21:04:27.594Z,8.23
2022-11-21T21:07:31.641Z,6.95
2022-11-21T21:11:04.012Z,7.00
2022-11-21T21:13:59.992Z,6.97
2022-11-21T21:17:03.076Z,7.97
2022-11-21T21:20:06.575Z,7.68
2022-11-21T21:23:09.214Z,7.47
2022-11-21T21:26:21.910Z,7.40
2022-11-21T21:29:24.622Z,7.07
2022-11-21T21:32:27.276Z,7.55
2022-11-21T21:35:29.798Z,7.75
2022-11-21T21:38:32.293Z,7.18
2022-11-21T21:41:35.871Z,7.07
2022-11-21T21:44:38.831Z,7.10
2022-11-21T21:47:43.020Z,6.93
2022-11-21T21:50:45.568Z,7.10
2022-11-21T21:53:49.418Z,7.75
2022-11-21T21:56:52.286Z,6.97
2022-11-21T21:59:54.773Z,7.47
2022-11-21T22:02:57.268Z,7.20
2022-11-21T22:06:08.184Z,7.47
2022-11-21T22:09:11.026Z,7.90
2022-11-21T22:12:13.551Z,7.53
2022-11-21T22:15:17.441Z,7.10
2022-11-21T22:18:20.179Z,7.50
2022-11-21T22:21:28.187Z,7.13
2022-11-21T22:24:30.948Z,7.50
2022-11-21T22:27:33.556Z,7.57
2022-11-21T22:30:36.231Z,7.85
2022-11-21T22:33:43.477Z,7.75
2022-11-21T22:36:46.961Z,7.85
2022-11-21T22:39:49.545Z,7.63
2022-11-21T22:42:52.427Z,7.53
2022-11-21T22:45:55.533Z,7.20
2022-11-21T22:48:59.469Z,7.20
2022-11-21T22:52:03.057Z,7.15
2022-11-21T22:55:06.026Z,7.20
2022-11-21T22:58:08.649Z,6.63
2022-11-21T23:01:16.359Z,6.78
2022-11-21T23:04:19.029Z,7.22
2022-11-21T23:07:21.702Z,7.25
2022-11-21T23:10:24.209Z,7.05
2022-11-21T23:13:26.675Z,6.73
2022-11-21T23:16:29.248Z,6.95
2022-11-21T23:19:32.136Z,7.47
2022-11-21T23:22:34.988Z,7.15
2022-11-21T23:25:37.470Z,7.05
2022-11-21T23:28:40.841Z,7.17
2022-11-21T23:31:43.300Z,6.70
2022-11-21T23:34:46.134Z,6.70
2022-11-21T23:37:48.688Z,7.13
2022-11-21T23:40:51.332Z,7.00
2022-11-21T23:43:53.879Z,7.00
2022-11-21T23:46:56.371Z,7.22
2022-11-21T23:49:58.970Z,6.88
2022-11-21T23:53:01.493Z,6.63
2022-11-21T23:56:04.347Z,7.43
2022-11-21T23:59:06.762Z,7.00
